Meteo Giornale » Osservazioni meteo Austria » Zell Am See

ore: 19:50 - Osservazioni Meteo Zell Am See
Lat. 47° 17' N Lon. 12° 47' E Alt. 754 metri s.l.m.

sereno Europe/Vienna

8 °C

Sereno

Temp. 24 Ore

2 °C

16 °C

Nord

1.8 Km/h

Dew point 7 °C

Umidità 93 %

Visibilità  10 Km

Il sole sorge alle ore 07:37

Il sole tramonta alle ore 18:08

Data e Ora Cielo e Fenomeni T °C DP °C Um. % Pres. hPa Vis. km Vento km/h
Oggi h: 19:50 sereno Sereno 8 7 93 0 10 N 1.8
Oggi h: 19:40 sereno Sereno 8 7 93 0 10 N 1.8
Oggi h: 19:30 sereno Sereno 9 8 93 0 10 N 1.8
Oggi h: 19:20 sereno Sereno 9 7 87 0 10 N 1.8
Oggi h: 19:10 sereno Sereno 8 6 87 0 10 N 1.8
Oggi h: 19:00 sereno Sereno 8 6 87 0 10 N 3.7
Oggi h: 18:50 sereno Sereno 10 8 87 0 10 N 1.8
Oggi h: 18:40 sereno Sereno 9 7 87 0 10 N 1.8
Oggi h: 18:20 sereno Sereno 10 8 87 0 10 N 3.7
Oggi h: 18:10 sereno Sereno 11 8 81 0 10 N 1.8
Oggi h: 18:00 sereno Sereno 12 8 76 0 10 N 3.7
Oggi h: 17:50 sereno Sereno 13 9 76 0 10 N 1.8
Oggi h: 17:40 sereno Sereno 13 10 81 0 10 N 3.7
Oggi h: 17:20 sereno Sereno 15 10 72 0 10 N 1.8
Oggi h: 17:10 sereno Sereno 15 10 72 0 10 N 3.7
Oggi h: 17:00 sereno Sereno 15 10 72 0 10 N 5.5
Oggi h: 16:50 sereno Sereno 15 10 72 0 10 N 3.7
Oggi h: 16:40 sereno Sereno 15 11 76 0 10 N 3.7
Oggi h: 16:30 sereno Sereno 15 10 72 0 10 N 3.7
Oggi h: 16:20 sereno Sereno 15 10 72 0 10 N 5.5
Oggi h: 16:10 sereno Sereno 16 9 63 0 10 N 5.5
Oggi h: 16:00 sereno Sereno 16 9 63 0 10 N 5.5
Oggi h: 15:50 sereno Sereno 16 10 67 0 10 N 5.5
Oggi h: 15:40 sereno Sereno 16 10 67 0 10 N 5.5
Oggi h: 15:30 sereno Sereno 15 9 67 0 10 N 5.5
Oggi h: 15:20 sereno Sereno 15 8 62 0 10 E/NE 9.3
Oggi h: 15:10 poco_nuvoloso Poco Nuvoloso 15 7 58 0 10 NE 13
Oggi h: 15:00 sereno Sereno 15 8 62 0 10 NE 11.1
Oggi h: 14:50 sereno Sereno 14 8 67 0 10 NE 11.1
Oggi h: 14:40 sereno Sereno 14 8 67 0 10 NE 7.4
Oggi h: 14:30 sereno Sereno 13 8 71 0 10 E 7.4
Oggi h: 14:20 sereno Sereno 13 8 71 0 10 N 5.5
Oggi h: 14:10 poco_nuvoloso Poco Nuvoloso 13 8 71 0 10 N 5.5
Oggi h: 14:00 sereno Sereno 13 8 71 0 10 N 5.5
Oggi h: 13:50 sereno Sereno 13 8 71 0 10 N 3.7
Oggi h: 13:40 sereno Sereno 12 8 76 0 10 N 1.8
Oggi h: 13:30 sereno Sereno 12 8 76 0 10 N 3.7
Oggi h: 13:20 sereno Sereno 12 8 76 0 10 N 5.5
Oggi h: 13:10 sereno Sereno 12 9 81 0 10 N 3.7
Oggi h: 13:00 sereno Sereno 12 8 76 0 10 N 3.7
Oggi h: 12:50 sereno Sereno 13 8 71 0 10 N 1.8
Oggi h: 12:40 sereno Sereno 12 8 76 0 10 N 3.7
Oggi h: 12:30 sereno Sereno 12 8 76 0 10 N 0
Oggi h: 12:20 sereno Sereno 11 7 76 0 10 N 1.8
Oggi h: 12:10 sereno Sereno 10 7 81 0 10 N 5.5
Oggi h: 12:00 sereno Sereno 10 7 81 0 10 N 1.8
Oggi h: 11:50 sereno Sereno 10 7 81 0 10 N 1.8
Oggi h: 11:40 sereno Sereno 9 7 87 0 10 N 3.7
Oggi h: 11:30 sereno Sereno 7 6 93 0 10 N 1.8
Oggi h: 11:20 sereno Sereno 6 5 93 0 10 N 3.7
Oggi h: 11:10 sereno Sereno 6 5 93 0 10 N 5.5
Oggi h: 11:00 sereno Sereno 6 5 93 0 10 N 5.5
Oggi h: 10:50 sereno Sereno 6 5 93 0 10 SO 7.4
Oggi h: 10:40 sereno Sereno 7 7 100 0 10 N 5.5
Oggi h: 10:30 sereno Sereno 7 7 100 0 10 SO 7.4
Oggi h: 10:20 sereno Sereno 9 8 93 0 10 N 5.5
Oggi h: 10:10 sereno Sereno 8 8 100 0 10 N 5.5
Oggi h: 09:50 sereno Sereno 7 7 100 0 10 N 5.5
Oggi h: 09:40 sereno Sereno 6 6 100 0 10 N 3.7
Oggi h: 09:30 poco_nuvoloso Poco Nuvoloso 6 6 100 0 10 N 3.7
Oggi h: 09:20 poco_nuvoloso Poco Nuvoloso 5 5 100 0 10 N 5.5
Oggi h: 09:10 nebbia Banco di Nebbia 5 5 100 0 5 N 5.5
Oggi h: 09:00 nebbia Banco di Nebbia 4 4 100 0 2 N 3.7
Oggi h: 08:50 nebbia Nebbia 3 3 100 0 0.45 N 1.8
Oggi h: 08:40 nebbia Nebbia 4 3 93 0 0.3 N 1.8
Oggi h: 08:30 nebbia Nebbia 2 2 100 0 0.3 N 3.7
Oggi h: 08:20 nebbia Nebbia 2 2 100 0 0.25 N 5.5
Oggi h: 08:10 nebbia Nebbia 2 2 100 0 0.25 N 3.7
Oggi h: 08:00 nebbia Nebbia 2 2 100 0 0.25 N 3.7
Oggi h: 07:50 nebbia Nebbia 2 2 100 0 0.2 N 3.7
Oggi h: 07:40 nebbia Nebbia 2 2 100 0 0.15 N 3.7
Oggi h: 07:30 nebbia Nebbia 3 2 93 0 0.2 N 5.5
Oggi h: 07:20 nebbia Nebbia 3 2 93 0 0.15 N 5.5
Oggi h: 07:10 nebbia Nebbia 3 2 93 0 0.15 SO 7.4
Oggi h: 07:00 nebbia Nebbia 3 2 93 0 0.15 N 5.5
Oggi h: 06:50 nebbia Nebbia 3 2 93 0 0.1 N 5.5
Oggi h: 06:40 nebbia Nebbia 3 3 100 0 0.2 N 3.7
Oggi h: 06:30 nebbia Nebbia 3 2 93 0 0.15 N 3.7
Oggi h: 06:10 nebbia Nebbia 3 3 100 0 0.15 N 3.7
Oggi h: 06:00 nebbia Nebbia 3 2 93 0 0.2 N 5.5
Oggi h: 05:50 nebbia Nebbia 3 2 93 0 0.2 N 5.5
Oggi h: 05:40 nebbia Nebbia 3 2 93 0 0.25 N 1.8
Oggi h: 05:20 nebbia Nebbia 2 2 100 0 0.3 N 1.8
Oggi h: 05:10 nebbia Nebbia 3 3 100 0 0.2 N 1.8
Oggi h: 05:00 nebbia Nebbia 3 3 100 0 0.3 N 1.8
Oggi h: 04:50 nebbia Nebbia 3 3 100 0 0.35 N 1.8
Oggi h: 04:40 nebbia Nebbia 3 2 93 0 0.2 N 3.7
Oggi h: 04:30 nebbia Nebbia 3 3 100 0 0.2 N 1.8
Oggi h: 04:20 nebbia Nebbia 3 2 93 0 0.25 N 5.5
Oggi h: 04:10 nebbia Nebbia 3 2 93 0 0.65 N 5.5
Oggi h: 04:00 nebbia Nebbia 3 3 100 0 0.55 N 5.5
Oggi h: 03:50 nebbia Nebbia 3 3 100 0 0.15 N 3.7
Oggi h: 03:40 nebbia Nebbia 3 3 100 0 0.3 N 1.8
Oggi h: 03:30 nebbia Nebbia 3 2 93 0 0.35 N 1.8
Oggi h: 03:20 nebbia Nebbia 5 4 93 0 0.25 N 1.8
Oggi h: 03:10 nebbia Nebbia 4 4 100 0 0.3 N 1.8
Oggi h: 03:00 nebbia Nebbia 3 3 100 0 0.2 N 1.8
Oggi h: 02:50 nebbia Banco di Nebbia 4 4 100 0 0.45 N 1.8
Oggi h: 02:40 nebbia Banco di Nebbia 4 4 100 0 2 N 1.8
Oggi h: 02:30 nebbia Nebbia 5 5 100 0 0.4 N 1.8
Oggi h: 02:20 nebbia Banco di Nebbia 5 5 100 0 0.5 N 3.7
Oggi h: 02:10 nebbia Banco di Nebbia 4 4 100 0 1 N 3.7
Oggi h: 02:00 nebbia Nebbia 4 4 100 0 0.45 N 5.5
Oggi h: 01:50 nebbia Nebbia 5 5 100 0 0.9 N 3.7
Oggi h: 01:40 nebbia Nebbia 5 4 93 0 0.4 N 1.8
Oggi h: 01:30 nebbia Nebbia 5 5 100 0 0.9 N 5.5
Oggi h: 01:20 nebbia Nebbia 5 4 93 0 0.6 N 5.5
Oggi h: 01:10 nebbia Banco di Nebbia 4 4 100 0 2 N 3.7
Oggi h: 01:00 nebbia Banco di Nebbia 5 4 93 0 0.9 N 1.8
Oggi h: 00:50 nebbia Banco di Nebbia 5 4 93 0 1 N 3.7
Oggi h: 00:40 nebbia Banco di Nebbia 6 5 93 0 0.35 N 3.7
Oggi h: 00:30 nebbia Nebbia 6 5 93 0 0.8 N 3.7
Oggi h: 00:20 foschia Foschia 6 6 100 0 2 N 3.7
Oggi h: 00:00 sereno Sereno 6 5 93 0 9 N 1.8
Ieri h: 23:50 sereno Sereno 6 5 93 0 10 N 1.8
Ieri h: 23:40 foschia Foschia 6 5 93 0 3 N 1.8
Ieri h: 23:30 sereno Sereno 6 5 93 0 10 N 3.7
Ieri h: 23:20 sereno Sereno 7 6 93 0 10 N 5.5
Ieri h: 23:10 sereno Sereno 6 6 100 0 7 N 5.5
Ieri h: 23:00 sereno Sereno 6 5 93 0 8 N 5.5
Ieri h: 22:50 sereno Sereno 7 6 93 0 10 N 1.8
Ieri h: 22:40 sereno Sereno 7 6 93 0 10 N 3.7
Ieri h: 22:30 sereno Sereno 8 7 93 0 10 N 5.5
Ieri h: 22:20 sereno Sereno 7 7 100 0 6 N 3.7
Ieri h: 22:10 sereno Sereno 7 6 93 0 10 N 3.7
Ieri h: 22:00 sereno Sereno 7 6 93 0 10 N 0
Ieri h: 21:50 sereno Sereno 8 7 93 0 10 N 0
Ieri h: 21:40 sereno Sereno 8 7 93 0 10 N 3.7
Ieri h: 21:30 sereno Sereno 8 7 93 0 10 N 5.5
Ieri h: 21:20 sereno Sereno 9 7 87 0 10 O 7.4
Ieri h: 21:10 sereno Sereno 7 7 100 0 10 N 5.5
Ieri h: 21:00 sereno Sereno 7 6 93 0 10 N 5.5
Ieri h: 20:50 sereno Sereno 8 7 93 0 10 N 3.7
Ieri h: 20:40 sereno Sereno 8 7 93 0 10 N 1.8